Time;durP1;ratioP1;P1;durP2;ratioP2;P2;SDS_P1;SDS_P2;PMS_P1;PMS_P2;Temp;Humidity;BMP_temperature;BMP_pressure;BME280_temperature;BME280_humidity;BME280_pressure;Samples;Min_cycle;Max_cycle;Signal;HPM_P1;HPM_P2
2022/04/17 00:00:40;;;;;;;8.98;3.28;;;;;;;10.94;57.52;98748.69;5131849;27;20036;-92
2022/04/17 00:03:06;;;;;;;9.48;2.67;;;;;;;11.00;57.87;98759.16;5131735;27;20118;-91
2022/04/17 00:05:35;;;;;;;10.05;2.90;;;;;;;10.74;58.15;98748.41;5132574;27;20116;-92
2022/04/17 00:08:05;;;;;;;8.43;2.78;;;;;;;10.74;58.27;98751.91;5131491;27;20042;-93
2022/04/17 00:10:31;;;;;;;8.82;3.20;;;;;;;10.89;57.88;98771.91;5131868;27;20043;-94
2022/04/17 00:12:58;;;;;;;12.75;3.38;;;;;;;10.63;58.13;98769.97;5132740;27;20043;-91
2022/04/17 00:15:23;;;;;;;8.85;3.42;;;;;;;10.43;58.33;98747.44;5131402;27;20035;-92
2022/04/17 00:17:49;;;;;;;12.52;3.75;;;;;;;10.52;58.17;98762.28;5132323;27;20051;-93
2022/04/17 00:20:17;;;;;;;8.77;3.22;;;;;;;10.49;57.96;98757.03;5131877;27;20031;-92
2022/04/17 00:22:44;;;;;;;11.40;3.08;;;;;;;10.39;57.67;98751.09;5131479;27;20039;-94
2022/04/17 00:25:12;;;;;;;10.68;2.90;;;;;;;10.44;57.76;98781.09;5132043;28;20046;-92
2022/04/17 00:27:39;;;;;;;8.35;3.50;;;;;;;10.43;57.73;98799.72;5131687;27;20036;-92
2022/04/17 00:30:06;;;;;;;13.38;3.15;;;;;;;10.33;57.60;98792.91;5124264;28;20510;-93
2022/04/17 00:32:32;;;;;;;12.02;3.28;;;;;;;10.35;57.90;98810.56;5131079;27;20043;-92
2022/04/17 00:34:58;;;;;;;15.35;3.40;;;;;;;10.12;57.72;98784.53;5131669;27;20050;-94
2022/04/17 00:37:24;;;;;;;8.40;3.38;;;;;;;10.18;57.72;98788.84;5131326;27;20052;-90
2022/04/17 00:39:51;;;;;;;9.57;3.85;;;;;;;9.89;58.05;98777.16;5132071;27;20055;-92
2022/04/17 00:42:17;;;;;;;15.05;4.38;;;;;;;9.92;57.73;98803.63;5130978;28;20047;-94
2022/04/17 00:44:43;;;;;;;11.30;3.40;;;;;;;9.77;57.69;98782.75;5131891;27;20096;-91
2022/04/17 00:47:12;;;;;;;15.55;4.32;;;;;;;9.69;57.75;98797.97;5130801;27;20073;-94
2022/04/17 00:49:37;;;;;;;12.03;3.80;;;;;;;9.69;57.95;98792.66;5131233;27;20067;-91
2022/04/17 00:52:04;;;;;;;9.18;3.85;;;;;;;9.82;58.01;98816.25;5131115;27;20054;-92
2022/04/17 00:54:31;;;;;;;16.38;3.38;;;;;;;9.84;57.56;98819.72;5131178;27;20465;-92
2022/04/17 00:56:59;;;;;;;10.00;3.83;;;;;;;9.81;57.85;98821.59;5131184;27;20488;-92
2022/04/17 00:59:41;;;;;;;13.40;3.97;;;;;;;9.69;58.38;98817.41;5119690;28;20122;-93
2022/04/17 01:02:14;;;;;;;12.73;4.07;;;;;;;9.50;58.08;98794.84;5113711;28;20096;-92
2022/04/17 01:04:40;;;;;;;13.23;3.63;;;;;;;9.45;58.17;98793.19;5118507;28;20566;-93
2022/04/17 01:07:08;;;;;;;13.07;4.07;;;;;;;9.25;58.29;98775.03;5117908;28;20035;-91
2022/04/17 01:09:34;;;;;;;11.20;3.97;;;;;;;9.20;58.24;98766.31;5117017;28;20415;-92
2022/04/17 01:12:08;;;;;;;16.65;4.57;;;;;;;9.33;58.42;98787.28;5117291;28;20051;-91
2022/04/17 01:14:36;;;;;;;16.40;5.30;;;;;;;9.32;58.41;98796.13;5108664;28;20489;-93
2022/04/17 01:17:02;;;;;;;29.27;6.07;;;;;;;9.28;58.47;98787.34;5112768;28;20085;-92
2022/04/17 01:19:32;;;;;;;13.57;4.25;;;;;;;9.20;58.28;98795.50;5110700;28;20040;-92
2022/04/17 01:21:59;;;;;;;13.35;4.03;;;;;;;9.03;58.37;98779.94;5116303;28;20091;-92
2022/04/17 01:27:25;;;;;;;9.57;4.07;;;;;;;8.99;58.84;98774.72;5112361;27;20731;-93
2022/04/17 01:29:53;;;;;;;27.88;4.93;;;;;;;8.87;58.99;98761.69;5111751;28;20044;-91
2022/04/17 01:32:19;;;;;;;18.63;4.40;;;;;;;8.89;58.90;98779.34;5111454;28;20063;-93
2022/04/17 01:34:45;;;;;;;13.18;4.88;;;;;;;8.73;58.99;98748.72;5111582;28;20036;-94
2022/04/17 01:37:11;;;;;;;18.10;4.82;;;;;;;8.79;59.15;98769.81;5111833;28;20044;-90
2022/04/17 01:39:37;;;;;;;19.77;5.35;;;;;;;8.74;59.17;98774.31;5111377;28;20493;-91
2022/04/17 01:42:03;;;;;;;14.25;4.82;;;;;;;8.68;59.78;98769.16;5111460;28;20088;-94
2022/04/17 01:44:31;;;;;;;15.77;4.25;;;;;;;8.71;59.33;98775.25;5112050;28;20036;-91
2022/04/17 01:46:57;;;;;;;19.92;4.47;;;;;;;8.70;59.41;98777.97;5111555;28;20363;-91
2022/04/17 01:49:23;;;;;;;13.18;4.78;;;;;;;8.49;59.48;98742.13;5111725;28;20040;-92
2022/04/17 01:51:52;;;;;;;14.73;4.90;;;;;;;8.60;59.74;98770.16;5112001;28;20051;-93
2022/04/17 01:54:19;;;;;;;16.48;4.30;;;;;;;8.52;59.59;98761.50;5111694;28;20044;-93
2022/04/17 01:56:47;;;;;;;15.02;4.95;;;;;;;8.53;59.72;98763.25;5111333;28;20123;-92
2022/04/17 01:59:14;;;;;;;16.17;4.88;;;;;;;8.56;59.70;98757.00;5111161;28;20044;-94
2022/04/17 02:01:42;;;;;;;18.05;4.90;;;;;;;8.62;59.65;98771.00;5111025;28;20052;-92
2022/04/17 02:04:09;;;;;;;19.30;5.18;;;;;;;8.54;59.47;98762.31;5111146;28;20521;-93
2022/04/17 02:06:35;;;;;;;13.77;4.70;;;;;;;8.51;59.16;98742.97;5109891;28;20032;-91
2022/04/17 02:09:02;;;;;;;21.05;5.20;;;;;;;8.37;59.54;98736.13;5111445;28;20036;-91
2022/04/17 02:11:28;;;;;;;20.52;5.13;;;;;;;8.28;60.01;98736.28;5111726;28;20060;-93
2022/04/17 02:13:55;;;;;;;14.13;5.28;;;;;;;8.29;59.42;98731.88;5111167;28;20036;-92
2022/04/17 02:16:21;;;;;;;16.00;4.65;;;;;;;8.41;59.22;98751.13;5111642;28;20040;-93
2022/04/17 02:18:49;;;;;;;18.45;5.82;;;;;;;8.26;59.26;98731.94;5111805;28;20051;-93
2022/04/17 02:21:16;;;;;;;18.70;4.90;;;;;;;8.35;59.16;98750.28;5111119;28;20516;-93
2022/04/17 02:23:43;;;;;;;17.30;5.10;;;;;;;8.39;58.91;98750.22;5110247;28;20075;-90
2022/04/17 02:26:10;;;;;;;13.82;5.07;;;;;;;8.30;58.69;98754.81;5110856;28;20529;-91
2022/04/17 02:28:36;;;;;;;17.83;4.82;;;;;;;8.21;59.02;98748.78;5111690;28;20043;-93
2022/04/17 02:31:03;;;;;;;14.38;5.45;;;;;;;8.18;59.13;98737.38;5110518;28;20035;-92
2022/04/17 02:33:29;;;;;;;19.42;5.22;;;;;;;8.17;59.04;98733.84;5110749;28;20589;-92
2022/04/17 02:35:56;;;;;;;13.00;5.32;;;;;;;8.11;59.03;98723.38;5110895;28;20083;-93
2022/04/17 02:38:22;;;;;;;15.60;4.90;;;;;;;8.23;59.16;98746.09;5098187;28;20047;-93
2022/04/17 02:40:48;;;;;;;12.00;5.20;;;;;;;8.05;59.29;98718.19;5097716;28;20630;-94
2022/04/17 02:43:14;;;;;;;17.63;5.22;;;;;;;8.01;59.22;98724.44;5097653;28;20044;-94
2022/04/17 02:45:40;;;;;;;11.27;5.35;;;;;;;8.16;59.47;98752.41;5097739;28;20397;-92
2022/04/17 02:48:06;;;;;;;19.02;6.53;;;;;;;8.14;59.08;98748.94;5097020;28;20044;-93
2022/04/17 02:50:33;;;;;;;19.20;5.93;;;;;;;8.15;59.27;98746.22;5096535;28;20040;-94
2022/04/17 02:53:00;;;;;;;11.30;5.25;;;;;;;8.00;59.50;98743.84;5096948;28;20723;-92
2022/04/17 02:55:26;;;;;;;13.45;5.65;;;;;;;7.89;59.31;98751.97;5096726;28;20032;-93
2022/04/17 02:57:54;;;;;;;15.00;4.90;;;;;;;7.76;59.29;98758.38;5097452;28;20063;-93
2022/04/17 03:00:21;;;;;;;14.20;4.40;;;;;;;7.65;59.57;98749.72;5096569;28;20040;-92
2022/04/17 03:05:47;;;;;;;17.35;5.43;;;;;;;7.61;59.84;98740.94;5111499;27;20373;-92
2022/04/17 03:08:15;;;;;;;18.80;5.18;;;;;;;7.59;59.54;98743.66;5111335;28;20079;-92
2022/04/17 03:10:43;;;;;;;23.40;5.22;;;;;;;7.60;59.54;98739.22;5111519;28;20139;-92
2022/04/17 03:13:10;;;;;;;14.48;5.10;;;;;;;7.51;59.42;98727.00;5111740;28;20039;-92
2022/04/17 03:15:38;;;;;;;16.30;5.53;;;;;;;7.64;59.42;98754.16;5111346;28;20047;-92
2022/04/17 03:18:05;;;;;;;14.55;4.97;;;;;;;7.59;59.48;98746.28;5111781;28;20073;-91
2022/04/17 03:20:30;;;;;;;13.18;4.65;;;;;;;7.58;59.71;98741.88;5111590;28;20047;-91
2022/04/17 03:22:58;;;;;;;16.77;4.78;;;;;;;7.53;59.85;98713.75;5111689;28;20105;-92
2022/04/17 03:25:24;;;;;;;15.05;5.30;;;;;;;7.45;59.60;98705.06;5111366;28;20035;-91
2022/04/17 03:27:49;;;;;;;14.20;5.72;;;;;;;7.50;59.87;98719.94;5111979;28;20151;-92
2022/04/17 03:30:17;;;;;;;12.30;4.65;;;;;;;7.53;59.38;98701.41;5111520;28;20055;-91
2022/04/17 03:32:43;;;;;;;16.35;6.55;;;;;;;7.52;59.61;98712.84;5111798;28;20050;-91
2022/04/17 03:35:10;;;;;;;13.13;4.63;;;;;;;7.66;59.35;98720.59;5111690;28;20035;-93
2022/04/17 03:37:35;;;;;;;15.95;5.20;;;;;;;7.66;59.82;98723.25;5111586;28;20130;-91
2022/04/17 03:40:04;;;;;;;12.45;5.63;;;;;;;7.63;59.39;98706.53;5111261;28;20070;-92
2022/04/17 03:42:30;;;;;;;11.17;5.00;;;;;;;7.63;60.07;98725.06;5111681;28;20063;-92
2022/04/17 03:44:56;;;;;;;13.60;5.10;;;;;;;7.60;59.65;98712.75;5110806;28;20068;-91
2022/04/17 03:47:21;;;;;;;19.65;5.32;;;;;;;7.63;59.55;98720.63;5111260;28;20097;-92
2022/04/17 03:49:47;;;;;;;16.95;5.53;;;;;;;7.55;59.70;98707.53;5111642;28;20044;-91
2022/04/17 03:52:13;;;;;;;18.70;6.20;;;;;;;7.67;59.78;98711.75;5111158;28;20040;-90
2022/04/17 03:54:39;;;;;;;13.30;5.70;;;;;;;7.60;59.98;98708.31;5111139;28;20048;-91
2022/04/17 03:57:06;;;;;;;15.23;5.65;;;;;;;7.59;59.87;98711.03;5110766;28;20466;-92
2022/04/17 03:59:33;;;;;;;12.43;5.82;;;;;;;7.50;60.29;98697.91;5110590;28;20519;-91
2022/04/17 04:01:59;;;;;;;13.27;5.25;;;;;;;7.61;60.27;98709.19;5110770;28;20063;-92
2022/04/17 04:04:25;;;;;;;13.05;5.68;;;;;;;7.57;60.94;98711.03;5109905;28;20082;-92
2022/04/17 04:06:51;;;;;;;13.13;5.30;;;;;;;7.56;61.54;98708.41;5110954;28;20047;-91
2022/04/17 04:09:16;;;;;;;16.00;5.30;;;;;;;7.61;60.26;98691.56;5110689;28;20370;-92
2022/04/17 04:11:44;;;;;;;13.30;5.40;;;;;;;7.65;60.30;98694.16;5110885;28;20412;-92
2022/04/17 04:14:11;;;;;;;14.82;6.03;;;;;;;7.56;60.18;98684.59;5110411;28;20114;-92
2022/04/17 04:16:37;;;;;;;12.77;5.70;;;;;;;7.57;60.11;98689.88;5099423;28;20089;-93
2022/04/17 04:19:05;;;;;;;15.15;5.70;;;;;;;7.63;60.24;98688.00;5096858;28;20044;-91
2022/04/17 04:21:30;;;;;;;12.75;5.05;;;;;;;7.61;60.31;98677.44;5096930;28;20113;-91
2022/04/17 04:23:56;;;;;;;13.32;5.38;;;;;;;7.71;59.90;98694.06;5096374;28;20481;-91
2022/04/17 04:26:22;;;;;;;13.82;5.43;;;;;;;7.76;59.82;98702.78;5096825;28;20032;-91
2022/04/17 04:28:48;;;;;;;11.98;5.55;;;;;;;7.77;60.20;98697.47;5096376;28;20036;-92
2022/04/17 04:31:15;;;;;;;16.27;5.50;;;;;;;7.86;59.43;98706.16;5097134;28;20101;-90
2022/04/17 04:33:42;;;;;;;22.27;6.70;;;;;;;7.76;59.53;98700.13;5097062;28;20123;-91
2022/04/17 04:36:11;;;;;;;16.20;5.72;;;;;;;7.75;59.66;98696.63;5096402;28;20520;-92
2022/04/17 04:38:38;;;;;;;11.98;5.90;;;;;;;7.87;59.66;98707.88;5096614;28;20055;-93
2022/04/17 04:41:04;;;;;;;12.23;5.50;;;;;;;7.97;58.41;98712.13;5096648;28;20060;-90
2022/04/17 04:43:33;;;;;;;11.82;5.30;;;;;;;7.92;58.13;98674.28;5096289;28;20570;-90
2022/04/17 04:51:58;;;;;;;20.98;6.63;;;;;;;8.23;56.99;98699.28;5132094;27;20368;-91
2022/04/17 04:54:24;;;;;;;11.43;5.60;;;;;;;8.17;56.98;98680.84;5130026;28;20101;-92
2022/04/17 04:56:49;;;;;;;9.15;5.60;;;;;;;8.14;56.96;98666.81;5132704;27;20362;-94
2022/04/17 04:59:15;;;;;;;13.10;6.65;;;;;;;8.18;56.47;98665.84;5132453;28;20039;-92
2022/04/17 05:01:41;;;;;;;19.65;6.88;;;;;;;8.21;56.45;98669.31;5132189;28;20123;-92
2022/04/17 05:04:07;;;;;;;21.73;7.18;;;;;;;8.20;56.74;98669.34;5132563;28;20560;-93
2022/04/17 05:06:33;;;;;;;13.85;6.22;;;;;;;8.29;56.96;98685.06;5132376;28;20056;-91
2022/04/17 05:09:00;;;;;;;12.93;6.20;;;;;;;8.43;56.32;98690.13;5132091;27;20031;-91
2022/04/17 05:11:26;;;;;;;11.73;6.18;;;;;;;8.35;56.39;98679.66;5129734;27;20035;-92
2022/04/17 05:13:52;;;;;;;14.55;5.43;;;;;;;8.41;56.34;98681.31;5131887;27;20039;-91
2022/04/17 05:16:18;;;;;;;19.45;6.18;;;;;;;8.52;55.93;98670.50;5132607;28;20596;-89
2022/04/17 05:18:44;;;;;;;14.57;6.00;;;;;;;8.49;55.64;98666.16;5132292;28;20031;-91
2022/04/17 05:21:09;;;;;;;15.48;7.47;;;;;;;8.45;55.64;98653.84;5132776;27;21374;-92
2022/04/17 05:23:37;;;;;;;15.20;6.53;;;;;;;8.56;55.24;98672.19;5132604;27;20126;-92
2022/04/17 05:26:05;;;;;;;16.08;6.55;;;;;;;8.53;55.73;98675.78;5132159;27;20051;-94
2022/04/17 05:28:31;;;;;;;19.33;5.95;;;;;;;8.56;55.87;98686.31;5133579;27;20035;-90
2022/04/17 05:30:58;;;;;;;14.13;5.97;;;;;;;8.48;55.46;98669.72;5132845;27;20035;-92
2022/04/17 05:33:24;;;;;;;15.02;5.78;;;;;;;8.50;55.83;98659.97;5131668;28;20431;-93
2022/04/17 05:35:51;;;;;;;11.82;5.60;;;;;;;8.64;54.44;98654.34;5133222;27;20043;-92
2022/04/17 05:38:18;;;;;;;14.23;6.32;;;;;;;8.63;54.52;98673.81;5133481;27;20491;-91
2022/04/17 05:40:46;;;;;;;10.15;5.40;;;;;;;8.49;54.49;98662.63;5132389;28;20049;-92
2022/04/17 05:43:14;;;;;;;13.60;6.03;;;;;;;8.55;54.84;98650.13;5133305;27;20051;-89
2022/04/17 05:45:40;;;;;;;10.93;5.30;;;;;;;8.55;54.87;98655.44;5133091;28;20071;-91
2022/04/17 05:48:07;;;;;;;13.07;6.70;;;;;;;8.69;54.51;98668.38;5132527;27;20039;-93
2022/04/17 05:50:33;;;;;;;12.75;6.35;;;;;;;8.65;54.79;98661.38;5133142;27;20504;-93
2022/04/17 05:53:00;;;;;;;13.70;6.32;;;;;;;8.51;55.62;98647.56;5133136;27;20134;-90
2022/04/17 05:55:27;;;;;;;11.88;5.40;;;;;;;8.58;55.62;98684.50;5135822;27;20118;-93
2022/04/17 05:57:52;;;;;;;11.32;6.55;;;;;;;8.66;55.56;98665.81;5125755;28;20378;-92
2022/04/17 06:00:27;;;;;;;14.38;5.55;;;;;;;8.86;55.05;98672.47;5134445;27;20039;-93
2022/04/17 06:02:54;;;;;;;11.40;6.03;;;;;;;9.03;55.63;98687.09;5121344;27;20063;-93
2022/04/17 06:05:21;;;;;;;13.73;6.93;;;;;;;8.68;54.65;98644.56;5120045;28;20032;-91
2022/04/17 06:07:47;;;;;;;19.23;6.20;;;;;;;8.84;54.85;98662.75;5119009;28;20089;-92
2022/04/17 06:10:14;;;;;;;11.57;5.88;;;;;;;8.94;54.79;98683.78;5116165;28;20043;-92
2022/04/17 06:12:40;;;;;;;16.15;6.53;;;;;;;8.96;55.12;98663.41;5119760;28;20048;-91
2022/04/17 06:15:09;;;;;;;17.30;7.20;;;;;;;8.99;54.65;98680.09;5121109;28;20086;-92
2022/04/17 06:17:41;;;;;;;13.90;6.53;;;;;;;8.87;54.40;98666.25;5119945;28;20035;-91
2022/04/17 06:20:09;;;;;;;13.00;6.10;;;;;;;9.07;55.04;98681.72;5118007;28;20043;-92
2022/04/17 06:22:35;;;;;;;19.05;6.82;;;;;;;9.14;54.91;98700.13;5119812;28;20051;-94
2022/04/17 06:25:02;;;;;;;14.50;6.47;;;;;;;9.16;54.93;98693.00;5119948;28;20503;-90
2022/04/17 06:27:35;;;;;;;13.93;6.28;;;;;;;9.11;54.97;98681.63;5119127;28;20113;-95
2022/04/17 06:30:06;;;;;;;19.40;7.03;;;;;;;9.25;55.31;98702.53;5119390;27;20071;-93
2022/04/17 06:32:33;;;;;;;14.13;6.75;;;;;;;9.31;55.78;98704.19;5120854;28;20071;-90
2022/04/17 06:35:00;;;;;;;13.05;7.03;;;;;;;9.47;54.94;98700.25;5118860;28;20055;-93
2022/04/17 06:37:26;;;;;;;16.10;7.13;;;;;;;9.54;54.71;98696.56;5119101;28;20036;-94
2022/04/17 06:39:51;;;;;;;14.63;6.65;;;;;;;9.27;56.08;98678.63;5118126;28;20117;-91
2022/04/17 06:42:17;;;;;;;14.80;6.80;;;;;;;9.42;56.22;98704.78;5118783;28;20046;-92
2022/04/17 06:44:43;;;;;;;19.08;7.65;;;;;;;9.28;56.88;98715.72;5119079;28;20075;-92
2022/04/17 06:47:09;;;;;;;12.93;6.90;;;;;;;9.31;57.40;98720.09;5117429;28;20477;-92
2022/04/17 06:49:35;;;;;;;13.77;6.53;;;;;;;9.43;57.39;98703.88;5118838;28;20079;-94
2022/04/17 06:52:02;;;;;;;16.27;6.65;;;;;;;9.51;56.35;98701.06;5119550;28;20043;-95
2022/04/17 06:54:28;;;;;;;16.20;7.38;;;;;;;9.76;55.88;98696.91;5119885;28;20043;-93
2022/04/17 06:56:54;;;;;;;13.95;7.13;;;;;;;9.76;55.41;98703.97;5118984;28;20566;-93
2022/04/17 06:59:19;;;;;;;13.13;7.43;;;;;;;9.66;55.61;98700.69;5121545;28;20071;-94
2022/04/17 07:01:45;;;;;;;17.25;7.05;;;;;;;9.86;56.11;98709.00;5119964;28;20107;-92
2022/04/17 07:04:11;;;;;;;15.80;6.63;;;;;;;9.61;54.65;98695.50;5117921;28;20096;-91
2022/04/17 07:06:37;;;;;;;19.50;7.03;;;;;;;9.48;55.14;98691.38;5120553;27;20032;-93
2022/04/17 07:09:04;;;;;;;16.73;7.45;;;;;;;9.71;54.24;98696.13;5118889;28;20052;-93
2022/04/17 07:11:30;;;;;;;12.23;7.03;;;;;;;9.56;52.97;98673.47;5118739;27;20071;-89
2022/04/17 07:13:57;;;;;;;20.27;7.93;;;;;;;9.87;52.78;98683.34;5119030;28;20043;-92
2022/04/17 07:16:23;;;;;;;13.20;6.88;;;;;;;10.15;52.77;98688.81;5118737;28;20130;-91
2022/04/17 07:18:49;;;;;;;13.73;7.43;;;;;;;10.26;51.36;98684.06;5117461;28;20035;-91
2022/04/17 07:21:16;;;;;;;18.13;7.35;;;;;;;10.38;50.57;98677.56;5118809;28;20043;-92
2022/04/17 07:23:43;;;;;;;18.08;7.95;;;;;;;10.26;51.11;98707.13;5120533;28;20036;-93
2022/04/17 07:26:11;;;;;;;13.15;6.78;;;;;;;10.37;50.43;98688.25;5119962;28;20173;-90
2022/04/17 07:28:39;;;;;;;15.23;7.05;;;;;;;10.67;50.02;98681.22;5117842;28;20138;-92
2022/04/17 07:31:05;;;;;;;16.20;7.15;;;;;;;10.77;49.82;98677.34;5122035;27;20099;-92
2022/04/17 07:33:31;;;;;;;15.93;8.05;;;;;;;10.22;50.23;98677.09;5119086;28;20047;-93
2022/04/17 07:35:56;;;;;;;24.67;6.72;;;;;;;10.20;50.16;98670.09;5114301;28;20440;-93
2022/04/17 07:38:22;;;;;;;14.50;7.00;;;;;;;10.33;50.00;98684.81;5118852;28;20047;-92
2022/04/17 07:40:48;;;;;;;13.82;6.78;;;;;;;10.58;49.08;98690.31;5097739;28;20547;-92
2022/04/17 07:43:16;;;;;;;13.23;7.32;;;;;;;10.46;49.67;98680.03;5101159;28;20107;-94
2022/04/17 07:45:42;;;;;;;20.58;8.70;;;;;;;10.02;50.53;98693.56;5120255;28;20044;-92
2022/04/17 07:48:09;;;;;;;14.95;6.35;;;;;;;10.36;50.72;98679.41;5120592;28;20043;-94
2022/04/17 07:50:35;;;;;;;13.10;6.35;;;;;;;10.78;48.08;98719.00;5121656;28;20079;-92
2022/04/17 07:53:01;;;;;;;12.48;6.93;;;;;;;10.85;47.97;98691.28;5119174;28;20409;-93
2022/04/17 07:55:27;;;;;;;15.82;7.13;;;;;;;10.82;48.46;98709.13;5120029;28;20047;-92
2022/04/17 08:06:24;;;;;;;16.23;6.82;;;;;;;11.77;45.64;98727.50;5134305;27;20398;-91
2022/04/17 08:08:52;;;;;;;15.25;6.90;;;;;;;11.86;45.44;98705.91;5134166;28;20053;-94
2022/04/17 08:11:20;;;;;;;13.32;6.10;;;;;;;12.08;45.51;98722.06;5133587;27;20039;-93
2022/04/17 08:13:46;;;;;;;11.20;5.88;;;;;;;11.99;44.11;98709.06;5133932;28;20074;-90
2022/04/17 08:16:13;;;;;;;11.80;6.63;;;;;;;11.54;45.99;98717.59;5134543;27;20096;-91
2022/04/17 08:18:39;;;;;;;11.15;5.85;;;;;;;11.51;45.65;98736.31;5134666;27;20043;-93
2022/04/17 08:21:05;;;;;;;14.40;6.72;;;;;;;11.82;45.02;98717.59;5131181;27;20621;-90
2022/04/17 08:23:34;;;;;;;11.18;6.50;;;;;;;11.07;45.67;98733.25;5131435;27;20043;-93
2022/04/17 08:26:01;;;;;;;13.30;6.15;;;;;;;11.20;46.25;98723.97;5122436;28;20031;-92
2022/04/17 08:28:27;;;;;;;13.93;6.47;;;;;;;11.36;45.72;98737.66;5134003;27;20043;-91
2022/04/17 08:30:53;;;;;;;11.75;6.30;;;;;;;11.46;45.05;98723.16;5130656;27;20069;-94
2022/04/17 08:33:19;;;;;;;12.77;5.72;;;;;;;11.64;44.45;98750.13;5134186;27;20043;-93
2022/04/17 08:35:46;;;;;;;15.43;5.80;;;;;;;11.06;45.78;98726.16;5134603;27;20103;-92
2022/04/17 08:38:19;;;;;;;12.85;5.97;;;;;;;11.00;45.82;98713.06;5133991;27;20107;-92
2022/04/17 08:41:05;;;;;;;15.43;6.18;;;;;;;11.12;45.90;98739.28;5134135;28;20123;-94
2022/04/17 08:43:32;;;;;;;15.20;6.18;;;;;;;11.02;45.99;98712.09;5134030;28;20039;-93
2022/04/17 08:45:58;;;;;;;11.60;6.00;;;;;;;10.76;46.39;98726.16;5132847;27;20096;-94
2022/04/17 08:48:26;;;;;;;14.05;6.32;;;;;;;10.53;46.26;98712.63;5133352;27;20043;-93
2022/04/17 08:50:53;;;;;;;12.38;6.20;;;;;;;10.78;46.57;98724.31;5134760;27;20510;-93
2022/04/17 08:53:20;;;;;;;14.48;6.80;;;;;;;10.97;46.49;98718.44;5135145;28;20068;-93
2022/04/17 08:55:49;;;;;;;17.73;6.53;;;;;;;10.60;47.31;98706.22;5134046;27;20035;-92
2022/04/17 08:58:16;;;;;;;9.43;6.23;;;;;;;11.06;46.94;98716.41;5134249;27;20044;-92
2022/04/17 09:00:42;;;;;;;14.70;6.72;;;;;;;10.46;47.25;98698.63;5135807;27;20036;-93
2022/04/17 09:03:09;;;;;;;17.27;6.00;;;;;;;11.15;46.40;98701.94;5131057;28;20039;-94
2022/04/17 09:05:36;;;;;;;14.82;6.78;;;;;;;11.07;46.05;98712.81;5132692;27;20126;-93
2022/04/17 09:08:13;;;;;;;13.27;6.88;;;;;;;11.05;46.55;98729.75;5134081;27;20134;-94
2022/04/17 09:10:52;;;;;;;11.50;5.47;;;;;;;11.48;45.87;98733.78;5133928;27;20043;-92
2022/04/17 09:13:40;;;;;;;14.55;6.55;;;;;;;11.31;45.79;98719.19;5132795;27;20067;-90
2022/04/17 09:16:07;;;;;;;10.90;5.75;;;;;;;10.65;47.00;98701.66;5127452;27;20040;-89
2022/04/17 09:18:33;;;;;;;9.95;6.00;;;;;;;10.89;47.00;98695.63;5119437;28;20040;-94
2022/04/17 09:21:01;;;;;;;11.85;6.60;;;;;;;11.06;46.59;98715.50;5116303;28;20039;-93
2022/04/17 09:23:49;;;;;;;12.57;6.25;;;;;;;11.28;46.57;98721.09;5121546;28;20040;-92
2022/04/17 09:26:15;;;;;;;15.45;5.88;;;;;;;11.39;46.20;98708.31;5118583;28;20134;-93
2022/04/17 09:28:44;;;;;;;14.23;6.00;;;;;;;11.03;46.91;98692.53;5117813;28;20050;-94
2022/04/17 09:31:10;;;;;;;12.13;6.32;;;;;;;10.84;47.10;98696.66;5119314;28;20126;-93
2022/04/17 09:33:38;;;;;;;10.90;6.03;;;;;;;11.14;46.07;98705.50;5120451;28;20069;-93
2022/04/17 09:36:04;;;;;;;13.68;5.35;;;;;;;11.42;45.08;98702.88;5118903;28;20036;-92
2022/04/17 09:38:32;;;;;;;13.55;5.68;;;;;;;11.45;45.47;98717.88;5120401;28;20046;-93
2022/04/17 09:41:13;;;;;;;17.95;6.03;;;;;;;10.89;45.63;98687.63;5121057;28;20488;-91
2022/04/17 09:43:39;;;;;;;13.05;5.68;;;;;;;10.92;47.01;98699.09;5122005;28;20166;-92
2022/04/17 09:46:08;;;;;;;12.77;5.70;;;;;;;10.99;45.92;98709.50;5120396;28;20032;-92
2022/04/17 09:48:36;;;;;;;11.57;5.25;;;;;;;10.77;47.06;98679.16;5122406;28;20084;-94
2022/04/17 09:51:19;;;;;;;12.00;5.80;;;;;;;10.83;47.78;98682.50;5121405;28;20378;-94
2022/04/17 09:53:56;;;;;;;10.95;5.68;;;;;;;10.82;46.75;98682.53;5123608;28;20044;-94
2022/04/17 09:56:31;;;;;;;13.02;6.40;;;;;;;10.66;47.51;98687.44;5123210;28;20127;-93
2022/04/17 09:58:57;;;;;;;10.27;5.20;;;;;;;10.65;47.06;98673.28;5116291;28;20050;-94
2022/04/17 10:01:26;;;;;;;9.43;5.45;;;;;;;10.58;46.73;98678.78;5118403;28;20132;-92
2022/04/17 10:03:54;;;;;;;7.97;4.82;;;;;;;10.71;46.87;98704.13;5118834;28;20109;-91
2022/04/17 10:06:22;;;;;;;13.10;5.40;;;;;;;10.59;47.18;98665.47;5119135;28;20066;-95
2022/04/17 10:08:48;;;;;;;13.98;5.55;;;;;;;10.59;46.84;98678.75;5119556;27;20071;-92
2022/04/17 10:11:14;;;;;;;13.02;5.03;;;;;;;10.86;46.14;98671.78;5117586;28;20043;-93
2022/04/17 10:13:40;;;;;;;12.13;6.57;;;;;;;10.97;45.56;98691.84;5117920;28;20036;-90
2022/04/17 10:16:09;;;;;;;9.15;5.18;;;;;;;10.94;46.40;98670.66;5119597;28;20047;-94
2022/04/17 10:18:39;;;;;;;12.20;5.35;;;;;;;11.34;45.43;98669.41;5119015;28;20050;-94
2022/04/17 10:21:06;;;;;;;11.85;4.97;;;;;;;11.57;44.41;98642.91;5118844;28;20035;-93
2022/04/17 10:23:36;;;;;;;12.55;5.97;;;;;;;11.33;44.75;98643.72;5118308;28;20039;-91
2022/04/17 10:26:04;;;;;;;10.73;5.00;;;;;;;11.74;44.04;98657.47;5117203;28;20043;-94
2022/04/17 10:28:36;;;;;;;11.73;5.50;;;;;;;12.05;43.86;98646.66;5116480;28;20562;-94
2022/04/17 10:31:13;;;;;;;8.15;5.05;;;;;;;12.06;43.77;98637.75;5117569;28;20044;-91
2022/04/17 10:34:06;;;;;;;11.77;5.07;;;;;;;12.20;44.60;98650.59;5116813;28;20044;-94
2022/04/17 10:36:48;;;;;;;9.13;4.85;;;;;;;11.93;44.64;98655.97;5109574;28;20043;-94
2022/04/17 10:39:20;;;;;;;10.15;4.85;;;;;;;11.28;45.58;98647.41;5118324;28;20169;-90
2022/04/17 10:41:46;;;;;;;9.25;4.88;;;;;;;11.61;44.78;98659.69;5116848;28;20031;-91
2022/04/17 10:44:14;;;;;;;9.90;4.97;;;;;;;11.32;45.39;98648.19;5117205;28;20035;-90
2022/04/17 10:46:49;;;;;;;12.70;4.78;;;;;;;11.43;44.35;98656.69;5119174;28;20048;-94
2022/04/17 10:49:18;;;;;;;12.85;6.03;;;;;;;11.45;44.65;98635.31;5118968;28;20047;-93
2022/04/17 10:51:50;;;;;;;11.82;4.78;;;;;;;11.50;44.89;98642.25;5119431;28;20039;-95
2022/04/17 10:54:16;;;;;;;12.48;4.60;;;;;;;11.62;44.82;98635.63;5117900;27;20036;-93
2022/04/17 10:56:58;;;;;;;13.95;6.82;;;;;;;11.66;45.36;98658.59;5131379;27;20036;-92
2022/04/17 10:59:28;;;;;;;11.82;4.82;;;;;;;11.72;44.39;98626.41;5118170;28;20122;-92
2022/04/17 11:01:55;;;;;;;13.85;4.60;;;;;;;11.77;44.30;98633.38;5118506;28;20553;-93
2022/04/17 11:04:25;;;;;;;11.50;5.20;;;;;;;12.17;43.70;98638.25;5117811;28;20402;-94
2022/04/17 11:07:10;;;;;;;10.43;5.70;;;;;;;11.44;45.59;98647.78;5117526;28;20088;-92
2022/04/17 11:09:42;;;;;;;11.10;4.55;;;;;;;11.30;45.39;98628.72;5118005;28;20036;-92
2022/04/17 11:12:20;;;;;;;14.82;5.03;;;;;;;12.03;44.92;98641.38;5116990;28;20050;-92
2022/04/17 11:14:52;;;;;;;11.97;4.90;;;;;;;12.00;44.73;98633.50;5110416;28;20066;-91
2022/04/17 11:17:21;;;;;;;11.20;5.30;;;;;;;11.52;45.33;98637.75;5115709;28;20044;-93
2022/04/17 11:19:51;;;;;;;15.85;5.28;;;;;;;11.26;46.28;98635.94;5116865;28;20043;-93
2022/04/17 11:22:17;;;;;;;12.27;5.13;;;;;;;11.07;47.03;98632.97;5122464;27;20424;-93
2022/04/17 11:25:07;;;;;;;9.88;4.40;;;;;;;10.74;47.41;98653.50;5120723;27;20048;-93
2022/04/17 11:27:45;;;;;;;11.80;4.50;;;;;;;10.97;47.09;98651.94;5115789;28;20043;-91
2022/04/17 11:30:31;;;;;;;10.85;4.88;;;;;;;11.50;47.64;98641.38;5112715;28;20043;-92
2022/04/17 11:32:57;;;;;;;10.73;4.72;;;;;;;11.25;46.59;98622.66;5115959;28;20058;-89
2022/04/17 11:35:25;;;;;;;10.82;5.10;;;;;;;11.41;46.28;98628.38;5114740;28;20039;-93
2022/04/17 11:37:57;;;;;;;12.23;4.85;;;;;;;11.03;46.58;98646.44;5116466;28;20051;-94
2022/04/17 11:40:26;;;;;;;17.05;5.13;;;;;;;10.88;46.73;98638.00;5115562;28;20071;-91
2022/04/17 11:42:54;;;;;;;11.40;4.65;;;;;;;11.74;44.64;98657.47;5115075;28;20047;-92
2022/04/17 11:45:21;;;;;;;10.60;4.63;;;;;;;11.96;43.95;98642.53;5114844;28;20442;-93
2022/04/17 11:47:49;;;;;;;8.85;4.55;;;;;;;11.92;43.80;98627.56;5114748;28;20479;-91
2022/04/17 11:50:27;;;;;;;11.57;4.85;;;;;;;11.71;45.23;98627.34;5114746;28;20040;-93
2022/04/17 11:52:55;;;;;;;11.63;4.50;;;;;;;11.37;44.86;98640.91;5115907;28;20040;-92
2022/04/17 11:55:26;;;;;;;11.38;4.40;;;;;;;11.23;45.73;98625.41;5114546;28;20048;-92